createdAt,value
2023-03-07T00:02:06.998Z,52.24
2023-03-07T00:04:35.358Z,52.47
2023-03-07T00:07:03.280Z,52.13
2023-03-07T00:09:32.644Z,52.41
2023-03-07T00:12:00.685Z,52.50
2023-03-07T00:14:28.814Z,52.86
2023-03-07T00:16:56.785Z,52.82
2023-03-07T00:19:27.177Z,52.65
2023-03-07T00:21:55.272Z,52.77
2023-03-07T00:24:23.194Z,52.87
2023-03-07T00:26:52.512Z,53.68
2023-03-07T00:29:20.612Z,53.95
2023-03-07T00:31:49.853Z,53.86
2023-03-07T00:34:17.898Z,53.82
2023-03-07T00:36:45.907Z,54.03
2023-03-07T00:39:13.828Z,54.22
2023-03-07T00:41:41.874Z,54.17
2023-03-07T00:44:11.199Z,54.32
2023-03-07T00:46:39.214Z,54.33
2023-03-07T00:49:07.653Z,54.79
2023-03-07T00:51:35.665Z,54.24
2023-03-07T00:54:04.823Z,54.45
2023-03-07T00:56:32.968Z,54.97
2023-03-07T00:59:00.954Z,54.78
2023-03-07T01:01:30.360Z,54.70
2023-03-07T01:03:58.651Z,54.54
2023-03-07T01:06:27.473Z,54.33
2023-03-07T01:08:57.379Z,54.11
2023-03-07T01:11:25.626Z,54.35
2023-03-07T01:13:55.918Z,54.15
2023-03-07T01:16:25.070Z,53.66
2023-03-07T01:18:55.515Z,54.01
2023-03-07T01:21:24.640Z,54.29
2023-03-07T01:23:52.767Z,54.32
2023-03-07T01:26:23.676Z,55.05
2023-03-07T01:28:51.892Z,55.82
2023-03-07T01:31:20.093Z,55.96
2023-03-07T01:33:48.646Z,56.00
2023-03-07T01:36:19.861Z,55.59
2023-03-07T01:38:49.372Z,55.75
2023-03-07T01:41:18.135Z,56.01
2023-03-07T01:43:48.647Z,55.84
2023-03-07T01:46:37.439Z,55.85
2023-03-07T01:49:07.715Z,55.57
2023-03-07T01:51:39.011Z,55.25
2023-03-07T01:54:07.546Z,55.49
2023-03-07T01:56:36.063Z,55.49
2023-03-07T01:59:04.094Z,55.98
2023-03-07T02:01:32.190Z,56.86
2023-03-07T02:04:02.310Z,57.89
2023-03-07T02:06:31.135Z,57.75
2023-03-07T02:09:00.753Z,57.70
2023-03-07T02:11:28.935Z,58.66
2023-03-07T02:13:56.864Z,58.50
2023-03-07T02:16:24.934Z,58.90
2023-03-07T02:18:52.837Z,59.31
2023-03-07T02:21:28.518Z,59.37
2023-03-07T02:23:58.282Z,59.66
2023-03-07T02:26:37.501Z,60.05
2023-03-07T02:29:05.651Z,60.30
2023-03-07T02:31:34.108Z,60.40
2023-03-07T02:34:02.368Z,60.59
2023-03-07T02:36:32.766Z,60.85
2023-03-07T02:39:09.131Z,60.85
2023-03-07T02:41:38.846Z,61.45
2023-03-07T02:44:13.814Z,61.88
2023-03-07T02:46:42.560Z,61.85
2023-03-07T02:49:10.596Z,61.67
2023-03-07T02:51:38.596Z,62.16
2023-03-07T02:54:08.368Z,61.95
2023-03-07T02:56:38.222Z,62.55
2023-03-07T02:59:06.202Z,61.71
2023-03-07T03:01:34.363Z,61.92
2023-03-07T03:04:02.401Z,62.34
2023-03-07T03:06:30.375Z,62.60
2023-03-07T03:08:58.579Z,62.68
2023-03-07T03:11:30.817Z,63.15
2023-03-07T03:14:00.328Z,63.19
2023-03-07T03:16:29.980Z,63.23
2023-03-07T03:18:58.148Z,63.33
2023-03-07T03:21:27.219Z,63.34
2023-03-07T03:23:58.683Z,63.63
2023-03-07T03:26:26.862Z,63.55
2023-03-07T03:28:55.553Z,63.43
2023-03-07T03:31:25.752Z,63.45
2023-03-07T03:33:53.907Z,63.29
2023-03-07T03:36:25.995Z,63.36
2023-03-07T03:38:57.049Z,63.16
2023-03-07T03:41:25.550Z,62.98
2023-03-07T03:43:53.861Z,62.80
2023-03-07T03:46:23.978Z,62.79
2023-03-07T03:48:53.359Z,62.67
2023-03-07T03:51:23.010Z,62.42
2023-03-07T03:53:51.241Z,62.48
2023-03-07T03:56:19.989Z,62.75
2023-03-07T03:58:48.418Z,62.43
2023-03-07T04:01:16.475Z,62.22
2023-03-07T04:03:46.932Z,62.56
2023-03-07T04:06:16.054Z,62.47
2023-03-07T04:08:44.450Z,62.63
2023-03-07T04:11:13.052Z,62.61
2023-03-07T04:13:41.242Z,62.73
2023-03-07T04:16:09.261Z,62.72
2023-03-07T04:18:37.565Z,62.68
2023-03-07T04:21:07.444Z,62.70
2023-03-07T04:23:35.588Z,62.62
2023-03-07T04:26:04.115Z,62.57
2023-03-07T04:28:43.866Z,62.50
2023-03-07T04:31:16.552Z,62.58
2023-03-07T04:33:45.764Z,62.26
2023-03-07T04:36:15.526Z,62.58
2023-03-07T04:38:43.562Z,62.31
2023-03-07T04:41:12.805Z,62.33
2023-03-07T04:43:41.124Z,62.02
2023-03-07T04:46:09.194Z,62.36
2023-03-07T04:48:37.233Z,62.48
2023-03-07T04:51:05.756Z,62.41
2023-03-07T04:53:35.282Z,62.22
2023-03-07T04:56:05.522Z,62.24
2023-03-07T04:58:34.184Z,62.45
2023-03-07T05:01:02.651Z,62.40
2023-03-07T05:03:30.736Z,62.19
2023-03-07T05:06:02.418Z,61.96
2023-03-07T05:08:31.295Z,62.18
2023-03-07T05:11:00.681Z,62.17
2023-03-07T05:13:29.412Z,62.40
2023-03-07T05:15:58.522Z,61.98
2023-03-07T05:18:27.370Z,62.09
2023-03-07T05:20:57.340Z,62.33
2023-03-07T05:23:25.797Z,62.30
2023-03-07T05:25:55.221Z,62.45
2023-03-07T05:28:24.842Z,62.25
2023-03-07T05:30:53.406Z,62.29
2023-03-07T05:33:21.931Z,62.16
2023-03-07T05:35:50.594Z,62.22
2023-03-07T05:38:19.214Z,62.43
2023-03-07T05:40:47.467Z,62.29
2023-03-07T05:43:15.604Z,62.18
2023-03-07T05:45:44.955Z,62.39
2023-03-07T05:48:13.024Z,62.38
2023-03-07T05:50:42.119Z,62.68
2023-03-07T05:53:10.291Z,62.47
2023-03-07T05:55:38.301Z,62.39
2023-03-07T05:58:06.706Z,62.23
2023-03-07T06:00:34.873Z,62.33
2023-03-07T06:03:04.660Z,62.33
2023-03-07T06:05:33.798Z,62.49
2023-03-07T06:08:03.842Z,62.16
2023-03-07T06:10:32.657Z,62.32
2023-03-07T06:13:00.701Z,62.38
2023-03-07T06:15:29.069Z,62.46
2023-03-07T06:18:05.947Z,61.94
2023-03-07T06:20:33.908Z,61.83
2023-03-07T06:23:01.933Z,61.87
2023-03-07T06:25:30.380Z,61.89
2023-03-07T06:28:00.963Z,62.07
2023-03-07T06:30:31.209Z,62.20
2023-03-07T06:32:59.596Z,61.94
2023-03-07T06:35:28.919Z,62.40
2023-03-07T06:37:56.903Z,62.15
2023-03-07T06:40:24.896Z,62.27
2023-03-07T06:42:53.525Z,62.42
2023-03-07T06:45:21.463Z,62.47
2023-03-07T06:47:49.738Z,62.12
2023-03-07T06:50:26.654Z,61.96
2023-03-07T06:53:04.351Z,62.28
2023-03-07T06:55:32.490Z,62.03
2023-03-07T06:58:00.451Z,62.14
2023-03-07T07:00:28.688Z,62.30
2023-03-07T07:02:56.871Z,62.17
2023-03-07T07:05:24.974Z,62.20
2023-03-07T07:07:52.925Z,62.11
2023-03-07T07:10:22.455Z,62.00
2023-03-07T07:12:54.522Z,61.85
2023-03-07T07:15:22.531Z,62.09
2023-03-07T07:17:51.696Z,62.03
2023-03-07T07:20:20.473Z,61.85
2023-03-07T07:22:48.451Z,61.77
2023-03-07T07:25:16.554Z,61.81
2023-03-07T07:27:47.243Z,61.80
2023-03-07T07:30:15.637Z,61.71
2023-03-07T07:32:45.057Z,61.74
2023-03-07T07:35:13.514Z,61.89
2023-03-07T07:37:41.530Z,61.71
2023-03-07T07:40:12.012Z,61.41
2023-03-07T07:42:41.040Z,61.39
2023-03-07T07:45:21.710Z,61.33
2023-03-07T07:47:50.523Z,61.30
2023-03-07T07:50:18.992Z,61.26
2023-03-07T07:52:47.000Z,61.11
2023-03-07T07:55:15.398Z,61.28
2023-03-07T07:57:45.025Z,61.06
2023-03-07T08:00:19.381Z,61.13
2023-03-07T08:02:50.404Z,60.84
2023-03-07T08:05:19.210Z,60.68
2023-03-07T08:07:47.150Z,60.83
2023-03-07T08:10:16.049Z,60.81
2023-03-07T08:12:44.325Z,60.93
2023-03-07T08:15:12.925Z,60.78
2023-03-07T08:17:40.872Z,60.66
2023-03-07T08:20:11.855Z,60.30
2023-03-07T08:22:40.059Z,60.55
2023-03-07T08:25:09.176Z,60.58
2023-03-07T08:27:37.146Z,60.40
2023-03-07T08:30:05.611Z,60.56
2023-03-07T08:32:33.600Z,60.53
2023-03-07T08:35:01.832Z,60.35
2023-03-07T08:37:31.115Z,60.60
2023-03-07T08:39:59.305Z,60.47
2023-03-07T08:42:27.270Z,60.40
2023-03-07T08:44:55.368Z,60.27
2023-03-07T08:47:23.365Z,60.12
2023-03-07T08:49:51.492Z,60.11
2023-03-07T08:52:19.450Z,60.44
2023-03-07T08:54:48.772Z,60.23
2023-03-07T08:57:16.883Z,59.99
2023-03-07T08:59:44.830Z,60.22
2023-03-07T09:02:12.994Z,60.02
2023-03-07T09:04:41.113Z,60.16
2023-03-07T09:07:09.235Z,60.08
2023-03-07T09:09:37.699Z,60.14
2023-03-07T09:12:07.683Z,59.91
2023-03-07T09:14:41.953Z,60.03
2023-03-07T09:17:09.917Z,59.94
2023-03-07T09:19:37.883Z,59.75
2023-03-07T09:22:06.246Z,59.29
2023-03-07T09:24:34.359Z,59.25
2023-03-07T09:27:02.656Z,59.17
2023-03-07T09:29:32.028Z,58.93
2023-03-07T09:32:00.092Z,58.67
2023-03-07T09:34:28.070Z,58.73
2023-03-07T09:36:58.663Z,58.82
2023-03-07T09:39:26.770Z,59.26
2023-03-07T09:42:04.759Z,58.62
2023-03-07T09:44:46.782Z,58.46
2023-03-07T09:47:38.090Z,58.25
2023-03-07T09:50:12.721Z,58.35
2023-03-07T09:52:40.862Z,58.33
2023-03-07T09:55:12.156Z,58.45
2023-03-07T09:57:47.137Z,58.48
2023-03-07T10:00:20.764Z,57.91
2023-03-07T10:02:50.688Z,57.84
2023-03-07T10:05:26.636Z,58.13
2023-03-07T10:07:54.925Z,58.03
2023-03-07T10:10:24.872Z,57.69
2023-03-07T10:12:59.931Z,57.51
2023-03-07T10:15:45.764Z,57.73
2023-03-07T10:18:19.144Z,57.62
2023-03-07T10:20:48.873Z,57.77
2023-03-07T10:23:31.122Z,57.30
2023-03-07T10:25:59.990Z,56.74
2023-03-07T10:28:28.856Z,57.03
2023-03-07T10:31:00.784Z,56.76
2023-03-07T10:33:28.809Z,57.24
2023-03-07T10:36:03.157Z,56.83
2023-03-07T10:38:36.332Z,56.39
2023-03-07T10:41:06.748Z,56.21
2023-03-07T10:43:40.250Z,56.27
2023-03-07T10:46:26.587Z,55.75
2023-03-07T10:49:03.579Z,56.17
2023-03-07T10:51:58.201Z,56.69
2023-03-07T10:54:35.196Z,56.18
2023-03-07T10:57:08.749Z,56.10
2023-03-07T10:59:38.916Z,56.08
2023-03-07T11:02:31.478Z,56.05
2023-03-07T11:05:00.652Z,55.96
2023-03-07T11:07:29.718Z,55.85
2023-03-07T11:10:36.984Z,54.54
2023-03-07T11:13:08.808Z,54.92
2023-03-07T11:15:38.382Z,54.82
2023-03-07T11:18:17.716Z,54.08
2023-03-07T11:20:49.735Z,53.67
2023-03-07T11:23:23.526Z,53.10
2023-03-07T11:25:53.135Z,52.90
2023-03-07T11:28:31.173Z,51.92
2023-03-07T11:31:21.515Z,52.23
2023-03-07T11:34:00.355Z,51.86
2023-03-07T11:36:33.037Z,51.03
2023-03-07T11:39:03.359Z,50.49
2023-03-07T11:41:36.369Z,49.71
2023-03-07T11:44:33.323Z,49.84
2023-03-07T11:47:20.494Z,49.74
2023-03-07T11:50:05.635Z,49.95
2023-03-07T11:52:52.670Z,48.95
2023-03-07T11:55:28.744Z,48.94
2023-03-07T11:58:21.778Z,49.01
2023-03-07T12:00:56.104Z,48.72
2023-03-07T12:03:45.744Z,49.01
2023-03-07T12:06:26.703Z,47.87
2023-03-07T12:09:19.180Z,48.71
2023-03-07T12:12:00.960Z,47.53
2023-03-07T12:14:33.580Z,46.16
2023-03-07T12:17:11.427Z,46.88
2023-03-07T12:19:53.828Z,46.93
2023-03-07T12:22:29.641Z,45.66
2023-03-07T12:25:24.881Z,45.86
2023-03-07T12:27:58.832Z,46.06
2023-03-07T12:30:28.353Z,45.92
2023-03-07T12:32:56.423Z,45.78
2023-03-07T12:35:25.871Z,45.74
2023-03-07T12:37:58.254Z,45.50
2023-03-07T12:40:27.872Z,45.28
2023-03-07T12:42:57.629Z,45.19
2023-03-07T12:45:27.257Z,45.45
2023-03-07T12:48:02.188Z,44.66
2023-03-07T13:08:42.127Z,43.13
2023-03-07T13:14:10.933Z,42.59
2023-03-07T13:16:58.662Z,41.66
2023-03-07T13:20:25.779Z,41.87
2023-03-07T13:23:48.650Z,44.37
2023-03-07T13:26:26.461Z,44.24
2023-03-07T13:28:57.552Z,43.49
2023-03-07T13:31:39.529Z,40.51
2023-03-07T13:34:51.738Z,41.21
2023-03-07T13:37:56.824Z,40.20
2023-03-07T13:40:59.457Z,40.00
2023-03-07T13:43:57.943Z,38.97
2023-03-07T13:46:32.140Z,36.35
2023-03-07T13:49:03.407Z,36.07
2023-03-07T13:51:31.826Z,35.37
2023-03-07T13:54:03.966Z,34.72
2023-03-07T13:56:32.546Z,35.33
2023-03-07T13:59:02.757Z,35.70
2023-03-07T14:01:32.986Z,34.92
2023-03-07T14:04:05.383Z,35.57
2023-03-07T14:06:34.841Z,36.19
2023-03-07T14:09:05.118Z,36.45
2023-03-07T14:11:40.838Z,36.76
2023-03-07T14:14:38.324Z,37.13
2023-03-07T14:17:23.917Z,36.61
2023-03-07T14:19:58.055Z,36.17
2023-03-07T14:22:36.787Z,36.28
2023-03-07T14:25:18.963Z,36.09
2023-03-07T14:27:57.956Z,35.98
2023-03-07T14:30:28.413Z,36.49
2023-03-07T14:32:56.794Z,37.48
2023-03-07T14:35:40.302Z,37.67
2023-03-07T14:38:09.487Z,37.87
2023-03-07T14:40:51.207Z,36.27
2023-03-07T14:43:44.631Z,35.16
2023-03-07T14:46:20.664Z,34.46
2023-03-07T14:49:01.952Z,35.09
2023-03-07T14:51:32.926Z,34.68
2023-03-07T14:54:01.034Z,34.41
2023-03-07T14:56:30.075Z,34.85
2023-03-07T14:59:02.360Z,35.56
2023-03-07T15:01:37.704Z,35.83
2023-03-07T15:05:04.551Z,35.80
2023-03-07T15:08:01.792Z,36.48
2023-03-07T15:11:28.351Z,36.10
2023-03-07T15:13:57.909Z,36.35
2023-03-07T16:06:41.023Z,34.69
2023-03-07T16:09:13.602Z,32.67
2023-03-07T16:11:41.797Z,32.84
2023-03-07T16:14:15.700Z,33.14
2023-03-07T16:16:44.428Z,33.84
2023-03-07T16:19:12.518Z,33.73
2023-03-07T16:21:40.469Z,33.45
2023-03-07T16:24:09.111Z,33.34
2023-03-07T16:26:38.518Z,33.15
2023-03-07T16:29:07.249Z,33.05
2023-03-07T16:31:35.450Z,33.11
2023-03-07T16:34:03.621Z,33.22
2023-03-07T16:36:31.616Z,33.28
2023-03-07T16:38:59.894Z,33.73
2023-03-07T16:41:27.992Z,33.99
2023-03-07T17:22:00.145Z,38.57
2023-03-07T17:24:53.211Z,38.33
2023-03-07T17:27:33.930Z,38.93
2023-03-07T17:30:06.606Z,38.86
2023-03-07T17:32:35.032Z,39.17
2023-03-07T17:35:03.422Z,39.06
2023-03-07T17:37:31.463Z,39.54
2023-03-07T17:40:01.081Z,39.38
2023-03-07T17:42:29.167Z,39.86
2023-03-07T17:44:57.144Z,39.58
2023-03-07T17:47:25.137Z,39.81
2023-03-07T17:49:53.062Z,39.85
2023-03-07T17:52:21.204Z,40.50
2023-03-07T17:54:51.200Z,40.59
2023-03-07T17:57:21.148Z,40.79
2023-03-07T17:59:49.167Z,41.23
2023-03-07T18:02:20.079Z,41.49
2023-03-07T18:04:48.453Z,41.65
2023-03-07T18:07:18.275Z,41.81
2023-03-07T18:09:47.354Z,42.11
2023-03-07T18:12:17.758Z,42.20
2023-03-07T18:14:47.004Z,42.29
2023-03-07T18:17:15.373Z,42.56
2023-03-07T18:19:43.538Z,42.97
2023-03-07T18:22:12.664Z,43.09
2023-03-07T18:24:40.666Z,43.22
2023-03-07T18:27:10.285Z,42.99
2023-03-07T18:29:38.391Z,43.32
2023-03-07T18:32:08.113Z,43.30
2023-03-07T18:34:36.161Z,43.70
2023-03-07T18:37:04.200Z,43.90
2023-03-07T18:39:33.511Z,44.14
2023-03-07T18:42:01.586Z,44.21
2023-03-07T18:44:31.271Z,44.20
2023-03-07T18:46:59.467Z,44.50
2023-03-07T18:49:28.923Z,44.34
2023-03-07T18:51:57.080Z,44.53
2023-03-07T18:54:25.018Z,44.62
2023-03-07T18:56:52.993Z,44.43
2023-03-07T18:59:20.989Z,44.61
2023-03-07T19:01:52.923Z,44.68
2023-03-07T19:04:21.044Z,44.55
2023-03-07T19:06:50.403Z,44.65
2023-03-07T19:09:19.668Z,44.38
2023-03-07T19:11:47.633Z,44.49
2023-03-07T19:14:15.644Z,44.51
2023-03-07T19:16:43.691Z,44.28
2023-03-07T19:19:12.953Z,44.34
2023-03-07T19:21:41.096Z,44.24
2023-03-07T19:24:11.366Z,44.25
2023-03-07T19:26:40.927Z,44.19
2023-03-07T19:29:09.828Z,44.28
2023-03-07T19:31:38.047Z,43.95
2023-03-07T19:34:06.418Z,44.08
2023-03-07T19:36:35.256Z,44.11
2023-03-07T19:39:03.299Z,43.75
2023-03-07T19:41:33.143Z,44.20
2023-03-07T19:44:01.231Z,44.16
2023-03-07T19:46:29.299Z,44.21
2023-03-07T19:48:59.286Z,44.10
2023-03-07T19:51:27.451Z,44.06
2023-03-07T19:53:57.461Z,43.90
2023-03-07T19:56:27.258Z,43.99
2023-03-07T19:58:56.846Z,43.84
2023-03-07T20:01:24.992Z,44.04
2023-03-07T20:03:53.131Z,44.05
2023-03-07T20:06:23.600Z,43.95
2023-03-07T20:08:52.433Z,44.07
2023-03-07T20:11:21.315Z,44.06
2023-03-07T20:13:52.257Z,43.92
2023-03-07T20:16:22.158Z,44.22
2023-03-07T20:18:51.425Z,44.01
2023-03-07T20:21:19.746Z,44.02
2023-03-07T20:23:48.398Z,44.11
2023-03-07T20:26:17.496Z,43.93
2023-03-07T20:28:45.539Z,44.12
2023-03-07T20:31:13.621Z,44.25
2023-03-07T20:33:46.001Z,44.22
2023-03-07T20:36:16.372Z,44.08
2023-03-07T20:38:44.455Z,44.14
2023-03-07T20:41:13.522Z,44.45
2023-03-07T20:43:41.598Z,44.40
2023-03-07T20:46:12.656Z,44.43
2023-03-07T20:48:41.033Z,44.24
2023-03-07T20:51:11.494Z,44.44
2023-03-07T20:53:39.548Z,44.76
2023-03-07T20:56:08.488Z,44.61
2023-03-07T20:58:36.561Z,44.65
2023-03-07T21:01:04.681Z,44.71
2023-03-07T21:03:32.790Z,44.79
2023-03-07T21:06:01.341Z,44.90
2023-03-07T21:08:31.765Z,45.11
2023-03-07T21:11:00.524Z,45.03
2023-03-07T21:13:28.726Z,45.21
2023-03-07T21:15:58.261Z,45.27
2023-03-07T21:18:26.345Z,45.09
2023-03-07T21:20:54.355Z,45.12
2023-03-07T21:23:22.282Z,45.25
2023-03-07T21:25:51.934Z,45.39
2023-03-07T21:28:19.853Z,45.64
2023-03-07T21:30:49.557Z,45.61
2023-03-07T21:33:17.830Z,45.54
2023-03-07T21:35:46.075Z,45.87
2023-03-07T21:38:14.072Z,45.74
2023-03-07T21:40:42.516Z,45.89
2023-03-07T21:43:14.412Z,45.89
2023-03-07T21:45:43.189Z,46.04
2023-03-07T21:48:11.349Z,45.91
2023-03-07T21:50:42.895Z,46.15
2023-03-07T21:53:11.026Z,46.00
2023-03-07T21:55:41.483Z,46.16
2023-03-07T21:58:20.253Z,46.27
2023-03-07T22:00:48.335Z,45.88
2023-03-07T22:03:16.460Z,46.32
2023-03-07T22:05:44.972Z,46.36
2023-03-07T22:08:16.035Z,45.96
2023-03-07T22:10:44.080Z,46.25
2023-03-07T22:13:13.371Z,46.54
2023-03-07T22:15:42.957Z,46.36
2023-03-07T22:18:10.860Z,46.46
2023-03-07T22:20:39.676Z,46.50
2023-03-07T22:23:07.612Z,46.54
2023-03-07T22:25:35.644Z,46.45
2023-03-07T22:28:04.037Z,46.71
2023-03-07T22:30:33.417Z,46.65
2023-03-07T22:33:01.706Z,46.50
2023-03-07T22:35:29.682Z,46.56
2023-03-07T22:37:57.648Z,46.49
2023-03-07T22:40:26.065Z,46.36
2023-03-07T22:42:54.144Z,46.30
2023-03-07T22:45:22.072Z,46.42
2023-03-07T22:47:51.608Z,46.59
2023-03-07T22:50:19.670Z,46.62
2023-03-07T22:52:47.609Z,46.66
2023-03-07T22:55:15.807Z,46.70
2023-03-07T22:57:43.784Z,46.71
2023-03-07T23:00:13.112Z,46.84
2023-03-07T23:02:41.019Z,46.56
2023-03-07T23:05:11.116Z,46.80
2023-03-07T23:07:39.961Z,46.71
2023-03-07T23:10:08.250Z,46.89
2023-03-07T23:12:36.453Z,46.78
2023-03-07T23:15:04.652Z,46.80
2023-03-07T23:17:32.677Z,46.82
2023-03-07T23:20:00.986Z,46.97
2023-03-07T23:22:30.325Z,46.94
2023-03-07T23:24:58.471Z,46.86
2023-03-07T23:27:27.712Z,47.03
2023-03-07T23:29:55.658Z,46.99
2023-03-07T23:32:23.900Z,46.74
2023-03-07T23:34:51.894Z,47.02
2023-03-07T23:37:20.156Z,46.95
2023-03-07T23:39:49.453Z,46.84
2023-03-07T23:42:19.290Z,47.01
2023-03-07T23:44:49.088Z,47.02
2023-03-07T23:47:17.152Z,46.96
2023-03-07T23:49:45.092Z,46.86
2023-03-07T23:52:13.088Z,46.83
2023-03-07T23:54:42.054Z,47.38
2023-03-07T23:57:11.445Z,47.39
2023-03-07T23:59:39.663Z,47.40
